Time;durP1;ratioP1;P1;durP2;ratioP2;P2;SDS_P1;SDS_P2;PMS_P1;PMS_P2;Temp;Humidity;BMP_temperature;BMP_pressure;BME280_temperature;BME280_humidity;BME280_pressure;Samples;Min_cycle;Max_cycle;Signal;HPM_P1;HPM_P2
2023/05/03 00:01:33;;;;;;;1.00;0.90;;;;;;;-148.14;100.00;71486.72;1727800;75;41987;-81
2023/05/03 00:04:02;;;;;;;1.10;0.90;;;;;;;-148.14;100.00;71486.72;1728182;75;41217;-79
2023/05/03 00:06:33;;;;;;;2.00;1.10;;;;;;;-148.14;100.00;71486.72;1727001;83;41195;-79
2023/05/03 00:09:02;;;;;;;0.80;0.80;;;;;;;-148.14;100.00;71486.72;1727917;75;41477;-78
2023/05/03 00:11:31;;;;;;;1.00;0.90;;;;;;;-148.14;100.00;71486.72;1727116;83;41696;-78
2023/05/03 00:14:04;;;;;;;1.50;1.00;;;;;;;-148.14;100.00;71486.72;1727451;75;41398;-79
2023/05/03 00:16:34;;;;;;;2.00;0.70;;;;;;;-148.14;100.00;71486.72;1727777;75;41232;-79
2023/05/03 00:19:03;;;;;;;1.00;0.90;;;;;;;-148.14;100.00;71486.72;1726958;75;41175;-77
2023/05/03 00:21:33;;;;;;;2.40;0.70;;;;;;;-148.14;100.00;71486.72;1727963;83;41265;-81
2023/05/03 00:24:02;;;;;;;0.60;0.60;;;;;;;-148.14;100.00;71486.72;1727621;75;41129;-80
2023/05/03 00:26:32;;;;;;;1.30;0.70;;;;;;;-148.14;100.00;71486.72;1726485;75;41459;-79
2023/05/03 00:29:04;;;;;;;0.50;0.50;;;;;;;-148.14;100.00;71486.72;1728019;83;41514;-80
2023/05/03 00:31:33;;;;;;;0.80;0.70;;;;;;;-148.14;100.00;71486.72;1727133;75;41885;-78
2023/05/03 00:34:03;;;;;;;1.00;0.90;;;;;;;-148.14;100.00;71486.72;1728011;75;41084;-77
2023/05/03 00:36:32;;;;;;;0.80;0.50;;;;;;;-148.14;100.00;71486.72;1726132;75;42362;-78
2023/05/03 00:39:02;;;;;;;1.40;0.90;;;;;;;-148.14;100.00;71486.72;1727421;83;41305;-77
2023/05/03 00:41:31;;;;;;;0.80;0.60;;;;;;;-148.14;100.00;71486.72;1726666;75;41280;-79
2023/05/03 00:44:03;;;;;;;0.70;0.70;;;;;;;-148.14;100.00;71486.72;1727628;75;41476;-80
2023/05/03 00:46:33;;;;;;;1.30;0.70;;;;;;;-148.14;100.00;71486.72;1726187;75;41876;-80
2023/05/03 00:49:02;;;;;;;1.20;0.80;;;;;;;-148.14;100.00;71486.72;1727645;75;41355;-79
2023/05/03 00:51:32;;;;;;;1.00;0.90;;;;;;;-148.14;100.00;71486.72;1727000;75;41228;-80
2023/05/03 00:54:02;;;;;;;1.10;1.00;;;;;;;-148.14;100.00;71486.72;1727766;75;41660;-78
2023/05/03 00:56:32;;;;;;;1.10;0.80;;;;;;;-148.14;100.00;71486.72;1726996;75;41247;-76
2023/05/03 00:59:04;;;;;;;1.10;1.00;;;;;;;-148.14;100.00;71486.72;1728289;75;41112;-79
2023/05/03 01:01:34;;;;;;;0.70;0.70;;;;;;;-148.14;100.00;71486.72;1727887;75;41898;-76
2023/05/03 01:04:04;;;;;;;1.00;0.80;;;;;;;-148.14;100.00;71486.72;1728715;75;42288;-81
2023/05/03 01:06:40;;;;;;;0.80;0.80;;;;;;;-148.14;100.00;71486.72;1728259;75;41396;-79
2023/05/03 01:09:18;;;;;;;1.40;1.00;;;;;;;-148.14;100.00;71486.72;1729446;75;41485;-77
2023/05/03 01:11:49;;;;;;;;;;;;;;;-148.14;100.00;71486.72;1728223;75;41186;-77
2023/05/03 01:14:30;;;;;;;1.10;0.90;;;;;;;-148.14;100.00;71486.72;1728026;75;41305;-80
2023/05/03 01:17:04;;;;;;;1.80;1.00;;;;;;;-148.14;100.00;71486.72;1727655;75;41113;-79
2023/05/03 01:19:38;;;;;;;1.20;1.00;;;;;;;-148.14;100.00;71486.72;1726917;75;41293;-77
2023/05/03 01:22:17;;;;;;;1.20;0.90;;;;;;;-148.14;100.00;71486.72;1726695;75;41342;-77
2023/05/03 01:24:49;;;;;;;0.60;0.60;;;;;;;-148.14;100.00;71486.72;1727390;75;42078;-80
2023/05/03 01:27:21;;;;;;;1.40;0.70;;;;;;;-148.14;100.00;71486.72;1727396;75;41510;-80
2023/05/03 01:29:51;;;;;;;0.70;0.60;;;;;;;-148.14;100.00;71486.72;1727484;75;41692;-78
2023/05/03 01:32:27;;;;;;;0.60;0.60;;;;;;;-148.14;100.00;71486.72;1727235;75;41595;-80
2023/05/03 01:35:01;;;;;;;1.10;1.00;;;;;;;-148.14;100.00;71486.72;1727272;75;41823;-80
2023/05/03 01:37:31;;;;;;;1.00;0.90;;;;;;;-148.14;100.00;71486.72;1726918;75;41146;-77
2023/05/03 01:40:03;;;;;;;0.90;0.80;;;;;;;-148.14;100.00;71486.72;1727361;75;41346;-80
2023/05/03 01:42:36;;;;;;;0.70;0.70;;;;;;;-148.14;100.00;71486.72;1727150;75;41592;-76
2023/05/03 01:45:07;;;;;;;0.90;0.90;;;;;;;-148.14;100.00;71486.72;1727676;75;41722;-77
2023/05/03 01:47:37;;;;;;;1.00;0.80;;;;;;;-148.14;100.00;71486.72;1726782;75;41209;-78
2023/05/03 01:50:08;;;;;;;1.40;0.90;;;;;;;-148.14;100.00;71486.72;1727369;75;42295;-78
2023/05/03 01:52:37;;;;;;;0.80;0.80;;;;;;;-148.14;100.00;71486.72;1727639;75;41279;-77
2023/05/03 01:55:07;;;;;;;0.80;0.80;;;;;;;-148.14;100.00;71486.72;1727597;75;41419;-77
2023/05/03 01:57:40;;;;;;;0.80;0.80;;;;;;;-148.14;100.00;71486.72;1727317;75;41607;-79
2023/05/03 02:00:11;;;;;;;1.30;1.00;;;;;;;-148.14;100.00;71486.72;1727338;75;41268;-77
2023/05/03 02:02:40;;;;;;;1.00;0.90;;;;;;;-148.14;100.00;71486.72;1728178;75;41610;-77
2023/05/03 02:05:11;;;;;;;2.20;1.40;;;;;;;-148.14;100.00;71486.72;1726922;75;42612;-77
2023/05/03 02:07:41;;;;;;;1.50;1.10;;;;;;;-148.14;100.00;71486.72;1728270;75;41244;-77
2023/05/03 02:10:13;;;;;;;1.50;1.40;;;;;;;-148.14;100.00;71486.72;1727174;75;42056;-79
2023/05/03 02:12:46;;;;;;;1.30;1.20;;;;;;;-148.14;100.00;71486.72;1728310;75;41512;-77
2023/05/03 02:15:18;;;;;;;2.90;1.70;;;;;;;-148.14;100.00;71486.72;1727273;75;42103;-81
2023/05/03 02:17:49;;;;;;;1.90;1.30;;;;;;;-148.14;100.00;71486.72;1727347;75;41267;-79
2023/05/03 02:20:19;;;;;;;2.10;1.70;;;;;;;-148.14;100.00;71486.72;1726757;75;42647;-81
2023/05/03 02:22:48;;;;;;;2.30;1.60;;;;;;;-148.14;100.00;71486.72;1728274;75;41202;-79
2023/05/03 02:25:18;;;;;;;2.30;1.50;;;;;;;-148.14;100.00;71486.72;1727165;75;42065;-79
2023/05/03 02:27:50;;;;;;;2.60;1.60;;;;;;;-148.14;100.00;71486.72;1727374;83;41846;-78
2023/05/03 02:30:19;;;;;;;2.00;1.70;;;;;;;-148.14;100.00;71486.72;1727127;75;41250;-79
2023/05/03 02:32:49;;;;;;;3.10;2.30;;;;;;;-148.14;100.00;71486.72;1728403;75;41164;-77
2023/05/03 02:35:20;;;;;;;2.90;2.30;;;;;;;-148.14;100.00;71486.72;1727040;75;41693;-78
2023/05/03 02:37:50;;;;;;;3.10;2.40;;;;;;;-148.14;100.00;71486.72;1727486;75;42005;-79
2023/05/03 02:40:20;;;;;;;3.00;2.20;;;;;;;-148.14;100.00;71486.72;1727133;75;42734;-77
2023/05/03 02:42:52;;;;;;;3.30;2.40;;;;;;;-148.14;100.00;71486.72;1727784;75;41589;-80
2023/05/03 02:45:23;;;;;;;3.30;2.40;;;;;;;-148.14;100.00;71486.72;1727215;75;41648;-79
2023/05/03 02:47:52;;;;;;;2.60;2.30;;;;;;;-148.14;100.00;71486.72;1727923;75;41398;-79
2023/05/03 02:50:28;;;;;;;2.80;2.40;;;;;;;-148.14;100.00;71486.72;1727238;75;42006;-79
2023/05/03 02:52:57;;;;;;;3.00;2.10;;;;;;;-148.14;100.00;71486.72;1727395;75;41646;-77
2023/05/03 02:55:27;;;;;;;2.20;1.60;;;;;;;-148.14;100.00;71486.72;1727629;75;41374;-79
2023/05/03 02:57:59;;;;;;;2.50;2.20;;;;;;;-148.14;100.00;71486.72;1727166;83;41461;-78
2023/05/03 03:00:29;;;;;;;2.30;1.90;;;;;;;-148.14;100.00;71486.72;1726901;75;42244;-77
2023/05/03 03:02:59;;;;;;;2.80;2.10;;;;;;;-148.14;100.00;71486.72;1727656;75;42258;-76
2023/05/03 03:05:28;;;;;;;1.90;1.60;;;;;;;-148.14;100.00;71486.72;1726451;75;41532;-79
2023/05/03 03:07:58;;;;;;;1.70;1.40;;;;;;;-148.14;100.00;71486.72;1727832;75;41615;-80
2023/05/03 03:10:27;;;;;;;1.30;1.20;;;;;;;-148.14;100.00;71486.72;1726321;75;41235;-80
2023/05/03 03:13:00;;;;;;;2.20;1.20;;;;;;;-148.14;100.00;71486.72;1728091;75;41348;-78
2023/05/03 03:15:29;;;;;;;1.40;1.10;;;;;;;-148.14;100.00;71486.72;1726184;75;41987;-81
2023/05/03 03:17:59;;;;;;;2.40;1.30;;;;;;;-148.14;100.00;71486.72;1727527;75;41248;-78
2023/05/03 03:20:29;;;;;;;1.20;1.10;;;;;;;-148.14;100.00;71486.72;1725865;75;41868;-78
2023/05/03 03:22:58;;;;;;;1.60;0.90;;;;;;;-148.14;100.00;71486.72;1726289;75;41286;-77
2023/05/03 03:25:28;;;;;;;1.30;1.00;;;;;;;-148.14;100.00;71486.72;1724014;83;41601;-81
2023/05/03 03:28:00;;;;;;;1.10;1.00;;;;;;;-148.14;100.00;71486.72;1726278;75;41116;-78
2023/05/03 03:30:30;;;;;;;1.00;0.90;;;;;;;-148.14;100.00;71486.72;1724476;83;41632;-76
2023/05/03 03:32:59;;;;;;;1.10;1.00;;;;;;;-148.14;100.00;71486.72;1725900;75;41528;-77
2023/05/03 03:35:30;;;;;;;1.00;0.90;;;;;;;-148.14;100.00;71486.72;1725081;75;41501;-78
2023/05/03 03:37:59;;;;;;;0.80;0.80;;;;;;;-148.14;100.00;71486.72;1726038;75;41602;-77
2023/05/03 03:40:29;;;;;;;1.10;1.00;;;;;;;-148.14;100.00;71486.72;1725933;75;41624;-74
2023/05/03 03:43:01;;;;;;;1.60;1.30;;;;;;;-148.14;100.00;71486.72;1726781;75;41186;-78
2023/05/03 03:45:31;;;;;;;1.60;1.30;;;;;;;-148.14;100.00;71486.72;1726402;75;41615;-80
2023/05/03 03:48:00;;;;;;;1.10;1.00;;;;;;;-148.14;100.00;71486.72;1726230;75;41625;-75
2023/05/03 03:50:30;;;;;;;1.30;1.10;;;;;;;-148.14;100.00;71486.72;1727000;83;41274;-75
2023/05/03 03:52:59;;;;;;;3.00;2.20;;;;;;;-148.14;100.00;71486.72;1726017;75;41813;-78
2023/05/03 03:55:30;;;;;;;2.40;1.80;;;;;;;-148.14;100.00;71486.72;1726097;75;41540;-77
2023/05/03 03:58:02;;;;;;;2.60;2.10;;;;;;;-148.14;100.00;71486.72;1724998;75;41508;-76
2023/05/03 04:00:32;;;;;;;3.10;1.80;;;;;;;-148.14;100.00;71486.72;1726659;75;41259;-76
2023/05/03 04:03:01;;;;;;;2.60;2.00;;;;;;;-148.14;100.00;71486.72;1725675;75;41618;-79
2023/05/03 04:05:31;;;;;;;2.40;1.90;;;;;;;-148.14;100.00;71486.72;1726251;75;41526;-80
2023/05/03 04:08:00;;;;;;;1.90;1.50;;;;;;;-148.14;100.00;71486.72;1724889;83;42029;-80
2023/05/03 04:10:30;;;;;;;2.30;2.10;;;;;;;-148.14;100.00;71486.72;1726058;75;41438;-79
2023/05/03 04:13:02;;;;;;;7.00;1.60;;;;;;;-148.14;100.00;71486.72;1725110;75;41776;-75
2023/05/03 04:15:31;;;;;;;2.20;1.70;;;;;;;-148.14;100.00;71486.72;1725754;75;41271;-76
2023/05/03 04:18:02;;;;;;;3.70;1.30;;;;;;;-148.14;100.00;71486.72;1725948;75;41550;-76
2023/05/03 04:20:31;;;;;;;4.70;3.60;;;;;;;-148.14;100.00;71486.72;1727281;75;41256;-75
2023/05/03 04:23:01;;;;;;;6.70;5.30;;;;;;;-148.14;100.00;71486.72;1726946;75;41495;-77
2023/05/03 04:25:31;;;;;;;3.60;2.40;;;;;;;-148.14;100.00;71486.72;1726530;75;41561;-76
2023/05/03 04:28:05;;;;;;;2.90;2.40;;;;;;;-148.14;100.00;71486.72;1726306;75;41166;-78
2023/05/03 04:30:36;;;;;;;2.50;1.90;;;;;;;-148.14;100.00;71486.72;1727161;75;41260;-78
2023/05/03 04:33:06;;;;;;;4.50;2.00;;;;;;;-148.14;100.00;71486.72;1726576;75;41616;-76
2023/05/03 04:35:38;;;;;;;2.40;1.90;;;;;;;-148.14;100.00;71486.72;1726732;75;41879;-77
2023/05/03 04:38:08;;;;;;;4.20;2.50;;;;;;;-148.14;100.00;71486.72;1726700;75;41528;-78
2023/05/03 04:40:38;;;;;;;6.10;2.20;;;;;;;-148.14;100.00;71486.72;1726877;75;41553;-74
2023/05/03 04:43:10;;;;;;;2.60;2.30;;;;;;;-148.14;100.00;71486.72;1726505;75;41256;-75
2023/05/03 04:45:40;;;;;;;2.60;2.20;;;;;;;-148.14;100.00;71486.72;1726623;75;42573;-77
2023/05/03 04:48:10;;;;;;;2.10;1.80;;;;;;;-148.14;100.00;71486.72;1726807;75;41775;-76
2023/05/03 04:50:39;;;;;;;2.00;1.70;;;;;;;-148.14;100.00;71486.72;1726258;75;41659;-74
2023/05/03 04:53:09;;;;;;;2.40;1.70;;;;;;;-148.14;100.00;71486.72;1726906;75;41116;-75
2023/05/03 04:55:39;;;;;;;3.30;1.90;;;;;;;-148.14;100.00;71486.72;1726105;75;41770;-75
2023/05/03 04:58:11;;;;;;;2.60;1.80;;;;;;;-148.14;100.00;71486.72;1726680;75;41349;-78
2023/05/03 05:00:40;;;;;;;2.90;2.00;;;;;;;-148.14;100.00;71486.72;1725204;75;42491;-76
2023/05/03 05:03:10;;;;;;;2.10;1.90;;;;;;;-148.14;100.00;71486.72;1726886;75;41807;-79
2023/05/03 05:05:39;;;;;;;2.30;1.90;;;;;;;-148.14;100.00;71486.72;1726045;75;41730;-78
2023/05/03 05:08:09;;;;;;;2.40;2.10;;;;;;;-148.14;100.00;71486.72;1727197;75;41752;-77
2023/05/03 05:10:42;;;;;;;2.80;1.90;;;;;;;-148.14;100.00;71486.72;1725744;75;41698;-78
2023/05/03 05:13:15;;;;;;;2.80;2.20;;;;;;;-148.14;100.00;71486.72;1726976;75;41335;-75
2023/05/03 05:15:44;;;;;;;2.80;2.00;;;;;;;-148.14;100.00;71486.72;1725905;75;41640;-75
2023/05/03 05:18:14;;;;;;;2.60;2.30;;;;;;;-148.14;100.00;71486.72;1726922;75;41199;-77
2023/05/03 05:20:44;;;;;;;3.70;2.40;;;;;;;-148.14;100.00;71486.72;1725119;75;42220;-76
2023/05/03 05:23:13;;;;;;;2.50;2.00;;;;;;;-148.14;100.00;71486.72;1726667;75;41315;-75
2023/05/03 05:25:43;;;;;;;2.40;2.20;;;;;;;-148.14;100.00;71486.72;1725859;75;41752;-74
2023/05/03 05:28:17;;;;;;;2.90;2.30;;;;;;;-148.14;100.00;71486.72;1727719;75;41138;-76
2023/05/03 05:30:47;;;;;;;4.90;2.20;;;;;;;-148.14;100.00;71486.72;1725804;75;41283;-75
2023/05/03 05:33:17;;;;;;;3.20;2.20;;;;;;;-148.14;100.00;71486.72;1727372;75;41806;-76
2023/05/03 05:35:48;;;;;;;2.10;1.80;;;;;;;-148.14;100.00;71486.72;1725379;75;41598;-76
2023/05/03 05:38:19;;;;;;;2.90;1.90;;;;;;;-148.14;100.00;71486.72;1726847;75;41153;-75
2023/05/03 05:40:48;;;;;;;2.60;2.00;;;;;;;-148.14;100.00;71486.72;1725950;75;42268;-75
2023/05/03 05:43:20;;;;;;;3.20;2.40;;;;;;;-148.14;100.00;71486.72;1727490;75;41533;-75
2023/05/03 05:45:50;;;;;;;2.80;2.30;;;;;;;-148.14;100.00;71486.72;1725541;75;41706;-78
2023/05/03 05:48:19;;;;;;;2.30;1.90;;;;;;;-148.14;100.00;71486.72;1726497;75;41222;-75
2023/05/03 05:50:49;;;;;;;3.10;2.50;;;;;;;-148.14;100.00;71486.72;1725480;75;42033;-75
2023/05/03 05:53:18;;;;;;;3.90;2.50;;;;;;;-148.14;100.00;71486.72;1727276;75;42521;-77
2023/05/03 05:55:48;;;;;;;5.40;2.80;;;;;;;-148.14;100.00;71486.72;1725783;75;41272;-74
2023/05/03 05:58:20;;;;;;;3.10;2.40;;;;;;;-148.14;100.00;71486.72;1727140;75;41184;-75
2023/05/03 06:00:50;;;;;;;4.10;2.60;;;;;;;-148.14;100.00;71486.72;1725348;75;41513;-73
2023/05/03 06:03:19;;;;;;;3.10;2.40;;;;;;;-148.14;100.00;71486.72;1727166;75;41424;-74
2023/05/03 06:05:50;;;;;;;3.50;2.90;;;;;;;-148.14;100.00;71486.72;1726082;75;41418;-77
2023/05/03 06:08:19;;;;;;;4.40;2.90;;;;;;;-148.14;100.00;71486.72;1726492;75;41643;-77
2023/05/03 06:10:51;;;;;;;4.70;2.90;;;;;;;-148.14;100.00;71486.72;1725677;75;41220;-78
2023/05/03 06:13:23;;;;;;;3.20;2.20;;;;;;;-148.14;100.00;71486.72;1726701;75;41618;-76
2023/05/03 06:15:53;;;;;;;5.60;2.70;;;;;;;-148.14;100.00;71486.72;1726443;75;41284;-75
2023/05/03 06:18:24;;;;;;;6.30;2.70;;;;;;;-148.14;100.00;71486.72;1726740;75;41115;-75
2023/05/03 06:20:55;;;;;;;4.60;2.50;;;;;;;-148.14;100.00;71486.72;1726177;75;41664;-75
2023/05/03 06:23:26;;;;;;;4.70;2.70;;;;;;;-148.14;100.00;71486.72;1726848;83;41500;-78
2023/05/03 06:25:56;;;;;;;6.10;3.00;;;;;;;-148.14;100.00;71486.72;1726329;83;41777;-76
2023/05/03 06:28:28;;;;;;;7.40;3.00;;;;;;;-148.14;100.00;71486.72;1726693;75;41576;-75
2023/05/03 06:30:58;;;;;;;4.60;3.00;;;;;;;-148.14;100.00;71486.72;1726836;75;41672;-76
2023/05/03 06:33:27;;;;;;;6.10;3.10;;;;;;;-148.14;100.00;71486.72;1726688;75;41525;-74
2023/05/03 06:35:57;;;;;;;4.80;3.40;;;;;;;-148.14;100.00;71486.72;1726690;75;41235;-73
2023/05/03 06:38:27;;;;;;;4.20;2.90;;;;;;;-148.14;100.00;71486.72;1726488;75;42302;-77
2023/05/03 06:40:58;;;;;;;4.80;3.00;;;;;;;-148.14;100.00;71486.72;1726906;75;42407;-74
2023/05/03 06:43:30;;;;;;;2.80;2.40;;;;;;;-148.14;100.00;71486.72;1725940;75;41240;-75
2023/05/03 06:45:59;;;;;;;4.40;2.60;;;;;;;-148.14;100.00;71486.72;1726429;75;41260;-74
2023/05/03 06:48:29;;;;;;;4.80;2.60;;;;;;;-148.14;100.00;71486.72;1726142;75;41607;-77
2023/05/03 06:50:59;;;;;;;3.50;2.70;;;;;;;-148.14;100.00;71486.72;1726871;75;41227;-76
2023/05/03 06:53:28;;;;;;;8.60;3.00;;;;;;;-148.14;100.00;71486.72;1727055;75;42268;-79
2023/05/03 06:55:58;;;;;;;4.00;2.20;;;;;;;-148.14;100.00;71486.72;1726130;75;41629;-75
2023/05/03 06:58:30;;;;;;;3.50;2.60;;;;;;;-148.14;100.00;71486.72;1726665;75;41216;-76
2023/05/03 07:00:59;;;;;;;5.20;2.80;;;;;;;-148.14;100.00;71486.72;1726963;75;41655;-75
2023/05/03 07:03:29;;;;;;;4.60;3.20;;;;;;;-148.14;100.00;71486.72;1726521;75;41845;-75
2023/05/03 07:05:58;;;;;;;4.70;2.30;;;;;;;-148.14;100.00;71486.72;1726686;75;42348;-77
2023/05/03 07:08:28;;;;;;;6.30;2.60;;;;;;;-148.14;100.00;71486.72;1725925;75;42252;-74
2023/05/03 07:10:57;;;;;;;5.70;2.80;;;;;;;-148.14;100.00;71486.72;1725591;75;41527;-75
2023/05/03 07:13:29;;;;;;;4.50;2.70;;;;;;;-148.14;100.00;71486.72;1726865;75;41581;-77
2023/05/03 07:15:59;;;;;;;6.60;3.10;;;;;;;-148.14;100.00;71486.72;1725651;75;41278;-76
2023/05/03 07:18:28;;;;;;;4.80;2.10;;;;;;;-148.14;100.00;71486.72;1725549;75;41862;-76
2023/05/03 07:20:58;;;;;;;5.10;2.70;;;;;;;-148.14;100.00;71486.72;1726280;83;41541;-74
2023/05/03 07:23:28;;;;;;;2.90;2.60;;;;;;;-148.14;100.00;71486.72;1726130;75;41266;-75
2023/05/03 07:25:58;;;;;;;3.00;2.50;;;;;;;-148.14;100.00;71486.72;1726388;75;41572;-74
2023/05/03 07:28:30;;;;;;;5.50;2.80;;;;;;;-148.14;100.00;71486.72;1726131;75;42055;-78
2023/05/03 07:30:59;;;;;;;2.70;2.20;;;;;;;-148.14;100.00;71486.72;1725117;75;41607;-77
2023/05/03 07:33:29;;;;;;;4.50;2.70;;;;;;;-148.14;100.00;71486.72;1726682;83;41361;-74
2023/05/03 07:35:58;;;;;;;3.40;2.40;;;;;;;-148.14;100.00;71486.72;1724999;75;41571;-75
2023/05/03 07:38:28;;;;;;;3.80;2.40;;;;;;;-148.14;100.00;71486.72;1724812;75;41147;-77
2023/05/03 07:40:58;;;;;;;4.30;2.40;;;;;;;-148.14;100.00;71486.72;1725862;75;41281;-76
2023/05/03 07:43:30;;;;;;;3.60;2.80;;;;;;;-148.14;100.00;71486.72;1722701;75;42273;-75
2023/05/03 07:45:59;;;;;;;3.40;2.20;;;;;;;-148.14;100.00;71486.72;1726203;75;41177;-76
2023/05/03 07:48:29;;;;;;;3.90;2.80;;;;;;;-148.14;100.00;71486.72;1725300;83;41155;-77
2023/05/03 07:50:58;;;;;;;5.10;2.60;;;;;;;-148.14;100.00;71486.72;1726408;75;41488;-73
2023/05/03 07:53:28;;;;;;;6.40;3.00;;;;;;;-148.14;100.00;71486.72;1726342;75;41116;-75
2023/05/03 07:55:57;;;;;;;2.60;2.20;;;;;;;-148.14;100.00;71486.72;1725980;75;42249;-76
2023/05/03 07:58:29;;;;;;;4.20;2.70;;;;;;;-148.14;100.00;71486.72;1726340;83;41312;-75
2023/05/03 08:00:59;;;;;;;4.20;2.80;;;;;;;-148.14;100.00;71486.72;1726393;75;41418;-75
2023/05/03 08:03:28;;;;;;;4.40;2.70;;;;;;;-148.14;100.00;71486.72;1727244;75;41180;-78
2023/05/03 08:05:58;;;;;;;3.20;2.50;;;;;;;-148.14;100.00;71486.72;1725600;75;41205;-77
2023/05/03 08:08:28;;;;;;;3.20;2.40;;;;;;;-148.14;100.00;71486.72;1726435;75;41517;-75
2023/05/03 08:10:57;;;;;;;4.70;2.70;;;;;;;-148.14;100.00;71486.72;1725428;83;41979;-77
2023/05/03 08:13:31;;;;;;;5.30;2.90;;;;;;;-148.14;100.00;71486.72;1725444;83;42094;-75
2023/05/03 08:16:00;;;;;;;5.70;4.00;;;;;;;-148.14;100.00;71486.72;1724937;75;41898;-77
2023/05/03 08:18:29;;;;;;;4.50;2.70;;;;;;;-148.14;100.00;71486.72;1726391;75;41768;-75
2023/05/03 08:21:00;;;;;;;6.50;3.10;;;;;;;-148.14;100.00;71486.72;1725178;75;41281;-77
2023/05/03 08:23:30;;;;;;;4.50;3.10;;;;;;;-148.14;100.00;71486.72;1726797;75;41623;-74
2023/05/03 08:26:03;;;;;;;4.80;3.30;;;;;;;-148.14;100.00;71486.72;1724513;75;42022;-74
2023/05/03 08:28:35;;;;;;;4.00;3.10;;;;;;;-148.14;100.00;71486.72;1726361;75;41577;-74
2023/05/03 08:31:05;;;;;;;4.50;3.50;;;;;;;-148.14;100.00;71486.72;1724665;75;42566;-77
2023/05/03 08:33:36;;;;;;;5.60;3.20;;;;;;;-148.14;100.00;71486.72;1726584;75;41181;-75
2023/05/03 08:36:06;;;;;;;2.90;2.60;;;;;;;-148.14;100.00;71486.72;1725308;75;41680;-75
2023/05/03 08:38:39;;;;;;;4.70;3.80;;;;;;;-148.14;100.00;71486.72;1727144;75;41242;-76
2023/05/03 08:41:21;;;;;;;6.00;3.20;;;;;;;-148.14;100.00;71486.72;1725201;75;41669;-79
2023/05/03 08:43:55;;;;;;;6.10;3.70;;;;;;;-148.14;100.00;71486.72;1726558;75;41768;-75
2023/05/03 08:46:25;;;;;;;4.50;3.10;;;;;;;-148.14;100.00;71486.72;1725294;75;41313;-78
2023/05/03 08:48:56;;;;;;;3.90;2.60;;;;;;;-148.14;100.00;71486.72;1726431;75;41239;-76
2023/05/03 08:51:27;;;;;;;3.60;2.80;;;;;;;-148.14;100.00;71486.72;1725694;75;41575;-76
2023/05/03 08:53:56;;;;;;;4.90;3.20;;;;;;;-148.14;100.00;71486.72;1726010;83;41971;-77
2023/05/03 08:56:30;;;;;;;2.70;2.50;;;;;;;-148.14;100.00;71486.72;1725011;75;42153;-74
2023/05/03 08:59:06;;;;;;;1.80;1.60;;;;;;;-148.14;100.00;71486.72;1725223;75;41914;-75
2023/05/03 09:01:36;;;;;;;3.00;2.50;;;;;;;-148.14;100.00;71486.72;1724220;75;41105;-77
2023/05/03 09:04:06;;;;;;;4.10;2.50;;;;;;;-148.14;100.00;71486.72;1725188;75;41427;-74
2023/05/03 09:06:36;;;;;;;3.80;3.10;;;;;;;-148.14;100.00;71486.72;1725267;75;42055;-76
2023/05/03 09:09:09;;;;;;;5.10;3.00;;;;;;;-148.14;100.00;71486.72;1725558;75;41663;-76
2023/05/03 09:11:40;;;;;;;3.80;2.70;;;;;;;-148.14;100.00;71486.72;1725107;75;41168;-78
2023/05/03 09:14:16;;;;;;;3.60;3.00;;;;;;;-148.14;100.00;71486.72;1725709;75;41613;-76
2023/05/03 09:16:47;;;;;;;5.30;3.00;;;;;;;-148.14;100.00;71486.72;1724313;75;42672;-74
2023/05/03 09:19:18;;;;;;;5.90;3.20;;;;;;;-148.14;100.00;71486.72;1725240;75;41248;-77
2023/05/03 09:21:49;;;;;;;4.60;3.20;;;;;;;-148.14;100.00;71486.72;1724779;75;41696;-73
2023/05/03 09:24:19;;;;;;;4.20;3.00;;;;;;;-148.14;100.00;71486.72;1726481;75;41899;-75
2023/05/03 09:26:50;;;;;;;3.40;2.80;;;;;;;-148.14;100.00;71486.72;1723627;75;41518;-75
2023/05/03 09:29:34;;;;;;;4.60;2.70;;;;;;;-148.14;100.00;71486.72;1726135;75;41559;-76
2023/05/03 09:32:07;;;;;;;3.40;2.90;;;;;;;-148.14;100.00;71486.72;1724670;75;41217;-76
2023/05/03 09:34:37;;;;;;;4.00;3.00;;;;;;;-148.14;100.00;71486.72;1726579;83;41598;-76
2023/05/03 09:37:07;;;;;;;4.40;2.90;;;;;;;-148.14;100.00;71486.72;1724649;75;41280;-75
2023/05/03 09:39:36;;;;;;;5.50;3.70;;;;;;;-148.14;100.00;71486.72;1726450;75;41457;-76
2023/05/03 09:42:14;;;;;;;3.80;2.90;;;;;;;-148.14;100.00;71486.72;1725748;75;41203;-75
2023/05/03 09:44:50;;;;;;;5.10;3.10;;;;;;;-148.14;100.00;71486.72;1727482;75;41162;-73
2023/05/03 09:47:20;;;;;;;3.00;2.30;;;;;;;-148.14;100.00;71486.72;1725978;75;41759;-75
2023/05/03 09:49:50;;;;;;;4.40;2.50;;;;;;;-148.14;100.00;71486.72;1727703;75;41282;-75
2023/05/03 09:52:20;;;;;;;3.90;2.90;;;;;;;-148.14;100.00;71486.72;1725584;75;41752;-76
2023/05/03 09:54:50;;;;;;;3.30;2.40;;;;;;;-148.14;100.00;71486.72;1727258;75;42055;-75
2023/05/03 09:57:20;;;;;;;3.90;2.80;;;;;;;-148.14;100.00;71486.72;1725414;75;41990;-75
2023/05/03 09:59:52;;;;;;;3.00;2.60;;;;;;;-148.14;100.00;71486.72;1725365;75;41691;-76
2023/05/03 10:02:22;;;;;;;3.60;2.90;;;;;;;-148.14;100.00;71486.72;1725645;75;42340;-74
2023/05/03 10:04:55;;;;;;;2.80;2.40;;;;;;;-148.14;100.00;71486.72;1726115;75;41182;-76
2023/05/03 10:07:26;;;;;;;2.40;2.20;;;;;;;-148.14;100.00;71486.72;1725684;75;42289;-75
2023/05/03 10:09:55;;;;;;;3.10;2.80;;;;;;;-148.14;100.00;71486.72;1725522;75;41753;-73
2023/05/03 10:12:28;;;;;;;4.20;3.20;;;;;;;-148.14;100.00;71486.72;1725991;75;41555;-76
2023/05/03 10:15:00;;;;;;;2.30;1.80;;;;;;;-148.14;100.00;71486.72;1725261;75;42002;-76
2023/05/03 10:17:32;;;;;;;2.50;2.20;;;;;;;-148.14;100.00;71486.72;1725621;75;42440;-77
2023/05/03 10:20:12;;;;;;;2.30;1.90;;;;;;;-148.14;100.00;71486.72;1725056;75;41987;-77
2023/05/03 10:23:08;;;;;;;2.50;2.30;;;;;;;-148.14;100.00;71486.72;1726123;75;42131;-78
2023/05/03 10:25:39;;;;;;;4.20;2.30;;;;;;;-148.14;100.00;71486.72;1725429;75;41325;-75
2023/05/03 10:28:09;;;;;;;2.70;2.40;;;;;;;-148.14;100.00;71486.72;1725681;75;41289;-76
2023/05/03 10:30:43;;;;;;;2.70;2.20;;;;;;;-148.14;100.00;71486.72;1725271;75;41741;-74
2023/05/03 10:33:33;;;;;;;2.30;1.90;;;;;;;-148.14;100.00;71486.72;1725524;75;41148;-77
2023/05/03 10:36:09;;;;;;;2.80;2.30;;;;;;;-148.14;100.00;71486.72;1725601;75;43129;-76
2023/05/03 10:38:39;;;;;;;2.50;1.90;;;;;;;-148.14;100.00;71486.72;1724237;75;41467;-74
2023/05/03 10:41:09;;;;;;;2.30;2.10;;;;;;;-148.14;100.00;71486.72;1726554;75;41218;-75
2023/05/03 10:43:46;;;;;;;3.00;2.10;;;;;;;-148.14;100.00;71486.72;1725580;75;41197;-78
2023/05/03 10:46:45;;;;;;;2.90;2.30;;;;;;;-148.14;100.00;71486.72;1725377;75;41167;-79
2023/05/03 10:49:22;;;;;;;2.20;1.70;;;;;;;-148.14;100.00;71486.72;1724098;75;42852;-75
2023/05/03 10:51:52;;;;;;;2.60;2.00;;;;;;;-148.14;100.00;71486.72;1724316;75;42243;-75
2023/05/03 10:54:22;;;;;;;2.00;1.60;;;;;;;-148.14;100.00;71486.72;1725083;75;41954;-74
2023/05/03 10:56:54;;;;;;;2.00;1.50;;;;;;;-148.14;100.00;71486.72;1725710;75;41132;-76
2023/05/03 10:59:24;;;;;;;1.30;1.20;;;;;;;-148.14;100.00;71486.72;1724521;75;42090;-77
2023/05/03 11:01:57;;;;;;;3.20;2.30;;;;;;;-148.14;100.00;71486.72;1725419;75;41313;-75
2023/05/03 11:04:36;;;;;;;3.20;2.60;;;;;;;-148.14;100.00;71486.72;1725018;75;42288;-75
2023/05/03 11:07:05;;;;;;;2.50;2.20;;;;;;;-148.14;100.00;71486.72;1725542;75;42026;-75
2023/05/03 11:09:36;;;;;;;3.20;2.50;;;;;;;-148.14;100.00;71486.72;1724794;75;41475;-74
2023/05/03 11:12:10;;;;;;;4.10;3.20;;;;;;;-148.14;100.00;71486.72;1725424;75;41403;-76
2023/05/03 11:14:40;;;;;;;3.50;3.20;;;;;;;-148.14;100.00;71486.72;1725971;83;41267;-73
2023/05/03 11:17:13;;;;;;;3.10;2.00;;;;;;;-148.14;100.00;71486.72;1725623;75;41722;-79
2023/05/03 11:19:45;;;;;;;3.80;2.90;;;;;;;-148.14;100.00;71486.72;1725732;75;41299;-77
2023/05/03 11:22:14;;;;;;;4.60;4.10;;;;;;;-148.14;100.00;71486.72;1725564;75;41653;-74
2023/05/03 11:24:44;;;;;;;4.80;3.20;;;;;;;-148.14;100.00;71486.72;1726299;75;41596;-75
2023/05/03 11:27:15;;;;;;;3.60;3.00;;;;;;;-148.14;100.00;71486.72;1723304;75;41313;-77